createdAt,value
2018-05-08T00:00:51.668Z,49.70
2018-05-08T00:03:21.632Z,49.30
2018-05-08T00:05:49.671Z,49.40
2018-05-08T00:08:19.339Z,49.70
2018-05-08T00:10:50.047Z,49.90
2018-05-08T00:13:21.971Z,49.80
2018-05-08T00:15:53.789Z,50.10
2018-05-08T00:18:32.132Z,50.10
2018-05-08T00:21:05.876Z,50.30
2018-05-08T00:23:33.891Z,50.60
2018-05-08T00:26:07.684Z,50.90
2018-05-08T00:28:38.796Z,51.30
2018-05-08T00:31:06.816Z,51.30
2018-05-08T00:33:35.716Z,51.40
2018-05-08T00:36:08.852Z,52.80
2018-05-08T00:38:37.867Z,52.20
2018-05-08T00:41:05.876Z,52.70
2018-05-08T00:43:34.849Z,52.70
2018-05-08T00:46:05.827Z,53.00
2018-05-08T00:48:34.747Z,53.30
2018-05-08T00:51:09.211Z,53.70
2018-05-08T00:53:38.276Z,54.10
2018-05-08T00:56:08.955Z,55.30
2018-05-08T00:58:43.372Z,55.20
2018-05-08T01:01:16.368Z,55.70
2018-05-08T01:03:44.407Z,56.20
2018-05-08T01:06:19.339Z,57.10
2018-05-08T01:08:48.375Z,57.80
2018-05-08T01:11:18.383Z,58.40
2018-05-08T01:13:46.388Z,59.10
2018-05-08T01:16:15.196Z,60.20
2018-05-08T01:18:43.215Z,60.00
2018-05-08T01:21:11.219Z,60.60
2018-05-08T01:23:41.088Z,61.80
2018-05-08T01:26:09.031Z,60.90
2018-05-08T01:28:37.040Z,61.30
2018-05-08T01:31:10.439Z,61.40
2018-05-08T01:33:39.419Z,61.60
2018-05-08T01:36:17.819Z,62.10
2018-05-08T01:38:45.835Z,62.80
2018-05-08T01:41:15.627Z,64.90
2018-05-08T01:43:48.314Z,64.90
2018-05-08T01:46:22.871Z,65.90
2018-05-08T01:48:52.849Z,66.70
2018-05-08T01:51:24.576Z,67.40
2018-05-08T01:53:52.606Z,68.30
2018-05-08T01:56:20.620Z,68.80
2018-05-08T01:58:50.843Z,69.60
2018-05-08T02:01:18.872Z,70.00
2018-05-08T02:03:47.803Z,70.70
2018-05-08T02:06:16.799Z,71.50
2018-05-08T02:08:44.831Z,72.40
2018-05-08T02:11:16.128Z,73.30
2018-05-08T02:13:54.523Z,74.20
2018-05-08T02:16:22.532Z,74.70
2018-05-08T02:18:52.299Z,76.20
2018-05-08T02:21:33.240Z,76.00
2018-05-08T02:24:04.532Z,76.50
2018-05-08T02:26:33.524Z,76.60
2018-05-08T02:29:03.543Z,77.10
2018-05-08T02:31:31.548Z,77.40
2018-05-08T02:34:04.296Z,78.60
2018-05-08T02:36:34.295Z,78.50
2018-05-08T02:39:03.300Z,79.30
2018-05-08T02:41:31.328Z,79.70
2018-05-08T02:43:59.340Z,80.10
2018-05-08T02:46:27.359Z,79.90
2018-05-08T02:48:59.064Z,79.80
2018-05-08T02:51:34.572Z,79.80
2018-05-08T02:54:02.584Z,79.60
2018-05-08T02:56:30.608Z,79.50
2018-05-08T02:59:00.567Z,79.60
2018-05-08T03:01:28.584Z,79.80
2018-05-08T03:03:56.595Z,80.00
2018-05-08T03:06:31.003Z,80.20
2018-05-08T03:09:00.012Z,80.50
2018-05-08T03:11:28.019Z,80.20
2018-05-08T03:14:04.928Z,78.90
2018-05-08T03:16:36.104Z,78.90
2018-05-08T03:19:06.126Z,79.20
2018-05-08T03:21:35.106Z,79.30
2018-05-08T03:24:04.103Z,79.70
2018-05-08T03:26:35.869Z,79.70
2018-05-08T03:29:07.707Z,79.90
2018-05-08T03:31:37.651Z,80.00
2018-05-08T03:34:05.659Z,80.30
2018-05-08T03:36:35.603Z,80.30
2018-05-08T03:39:03.615Z,80.40
2018-05-08T03:41:34.322Z,80.80
2018-05-08T03:44:03.311Z,80.80
2018-05-08T03:46:31.322Z,81.30
2018-05-08T03:49:05.885Z,81.50
2018-05-08T03:51:46.919Z,81.50
2018-05-08T03:54:15.698Z,81.90
2018-05-08T03:56:46.391Z,82.50
2018-05-08T03:59:14.406Z,82.40
2018-05-08T04:01:56.266Z,83.00
2018-05-08T04:04:45.294Z,83.40
2018-05-08T04:07:27.078Z,84.20
2018-05-08T04:09:55.095Z,85.00
2018-05-08T04:12:27.366Z,85.30
2018-05-08T04:15:09.503Z,86.00
2018-05-08T04:17:45.403Z,86.30
2018-05-08T04:20:13.415Z,86.20
2018-05-08T04:22:41.439Z,87.10
2018-05-08T04:25:10.461Z,86.80
2018-05-08T04:27:38.471Z,87.30
2018-05-08T04:30:06.480Z,87.10
2018-05-08T04:32:36.510Z,87.30
2018-05-08T04:35:04.514Z,87.10
2018-05-08T04:37:33.458Z,86.70
2018-05-08T04:40:01.491Z,86.40
2018-05-08T04:42:30.414Z,86.10
2018-05-08T04:44:59.399Z,86.00
2018-05-08T04:47:28.418Z,85.30
2018-05-08T04:49:56.420Z,85.30
2018-05-08T04:52:31.395Z,85.00
2018-05-08T04:55:00.399Z,84.90
2018-05-08T04:57:29.383Z,84.60
2018-05-08T04:59:57.991Z,84.80
2018-05-08T05:02:25.991Z,84.30
2018-05-08T05:04:53.998Z,84.40
2018-05-08T05:07:31.882Z,83.90
2018-05-08T05:09:59.907Z,83.50
2018-05-08T05:12:32.990Z,83.20
2018-05-08T05:15:01.011Z,83.40
2018-05-08T05:17:33.262Z,82.80
2018-05-08T05:20:04.968Z,83.20
2018-05-08T05:22:32.982Z,82.60
2018-05-08T05:25:00.991Z,81.60
2018-05-08T05:27:34.099Z,81.10
2018-05-08T05:30:03.083Z,80.50
2018-05-08T05:32:34.468Z,78.40
2018-05-08T05:35:03.422Z,75.90
2018-05-08T05:37:33.432Z,74.30
2018-05-08T05:40:01.463Z,72.90
2018-05-08T05:42:35.192Z,71.90
2018-05-08T05:45:03.155Z,71.50
2018-05-08T05:47:31.159Z,70.60
2018-05-08T05:50:03.531Z,70.30
2018-05-08T05:52:31.543Z,69.80
2018-05-08T05:54:59.583Z,68.60
2018-05-08T05:57:34.390Z,68.70
2018-05-08T06:00:07.128Z,68.10
2018-05-08T06:02:35.104Z,68.10
2018-05-08T06:05:06.883Z,67.40
2018-05-08T06:07:39.575Z,67.20
2018-05-08T06:10:13.378Z,66.50
2018-05-08T06:12:43.415Z,65.60
2018-05-08T06:15:11.423Z,66.20
2018-05-08T06:17:39.438Z,65.50
2018-05-08T06:20:07.456Z,63.80
2018-05-08T06:22:35.454Z,62.40
2018-05-08T06:25:06.794Z,61.80
2018-05-08T06:27:36.514Z,61.90
2018-05-08T06:30:04.538Z,61.90
2018-05-08T06:32:33.330Z,62.00
2018-05-08T06:35:02.106Z,60.80
2018-05-08T06:37:30.883Z,60.60
2018-05-08T06:39:58.915Z,60.50
2018-05-08T06:42:27.680Z,58.60
2018-05-08T06:44:55.682Z,58.50
2018-05-08T06:47:24.687Z,58.30
2018-05-08T06:50:02.578Z,58.10
2018-05-08T06:52:36.131Z,57.00
2018-05-08T06:55:04.903Z,56.90
2018-05-08T06:57:33.674Z,57.40
2018-05-08T07:00:06.239Z,57.40
2018-05-08T07:02:34.254Z,56.40
2018-05-08T07:05:03.183Z,54.30
2018-05-08T07:07:31.210Z,53.60
2018-05-08T07:09:59.982Z,54.60
2018-05-08T07:12:29.886Z,54.60
2018-05-08T07:14:58.848Z,55.00
2018-05-08T07:17:26.850Z,53.40
2018-05-08T07:19:58.375Z,53.20
2018-05-08T07:22:26.378Z,52.30
2018-05-08T07:24:58.633Z,51.90
2018-05-08T07:27:27.594Z,51.70
2018-05-08T07:29:58.656Z,50.60
2018-05-08T07:32:26.550Z,49.50
2018-05-08T07:34:55.314Z,49.00
2018-05-08T07:37:23.334Z,49.00
2018-05-08T07:39:54.650Z,48.70
2018-05-08T07:42:23.470Z,47.50
2018-05-08T07:44:56.346Z,47.50
2018-05-08T07:47:26.330Z,46.50
2018-05-08T07:49:56.034Z,47.30
2018-05-08T07:52:26.030Z,47.30
2018-05-08T07:54:54.034Z,45.70
2018-05-08T07:57:22.978Z,45.50
2018-05-08T08:00:02.934Z,44.60
2018-05-08T08:02:31.883Z,46.30
2018-05-08T08:05:01.870Z,42.70
2018-05-08T08:07:34.745Z,41.80
2018-05-08T08:10:06.370Z,41.10
2018-05-08T08:12:35.646Z,41.10
2018-05-08T08:15:03.649Z,40.00
2018-05-08T08:17:38.165Z,39.70
2018-05-08T08:20:06.180Z,40.10
2018-05-08T08:22:36.146Z,39.40
2018-05-08T08:25:21.562Z,39.00
2018-05-08T08:28:09.426Z,37.20
2018-05-08T08:30:37.441Z,36.70
2018-05-08T08:33:06.337Z,36.80
2018-05-08T08:35:34.347Z,37.30
2018-05-08T08:38:03.134Z,36.30
2018-05-08T08:40:31.910Z,36.90
2018-05-08T08:43:07.998Z,36.50
2018-05-08T08:45:37.946Z,36.50
2018-05-08T08:48:11.138Z,36.90
2018-05-08T08:50:46.542Z,37.00
2018-05-08T08:53:16.510Z,36.10
2018-05-08T08:55:49.170Z,37.60
2018-05-08T08:58:18.167Z,35.80
2018-05-08T09:00:47.148Z,35.20
2018-05-08T09:03:15.715Z,36.70
2018-05-08T09:05:56.363Z,37.00
2018-05-08T09:08:24.367Z,37.20
2018-05-08T09:10:52.363Z,37.80
2018-05-08T09:13:21.331Z,36.90
2018-05-08T09:15:53.690Z,37.40
2018-05-08T09:18:27.318Z,36.90
2018-05-08T09:21:10.473Z,35.80
2018-05-08T09:23:41.183Z,38.00
2018-05-08T09:26:09.184Z,38.00
2018-05-08T09:28:38.938Z,37.80
2018-05-08T09:31:06.947Z,37.70
2018-05-08T09:33:37.611Z,37.30
2018-05-08T09:36:15.269Z,37.30
2018-05-08T09:38:45.162Z,36.50
2018-05-08T09:41:17.027Z,36.30
2018-05-08T09:43:49.632Z,35.80
2018-05-08T09:46:23.198Z,35.70
2018-05-08T09:48:51.270Z,35.20
2018-05-08T09:51:30.260Z,36.10
2018-05-08T09:53:59.270Z,36.10
2018-05-08T09:56:29.179Z,35.50
2018-05-08T09:59:00.955Z,35.40
2018-05-08T10:01:28.987Z,36.00
2018-05-08T10:03:56.978Z,37.10
2018-05-08T10:06:25.894Z,36.00
2018-05-08T10:08:54.874Z,35.10
2018-05-08T10:11:22.875Z,33.90
2018-05-08T10:13:52.655Z,32.60
2018-05-08T10:16:24.266Z,32.60
2018-05-08T10:18:55.922Z,33.10
2018-05-08T10:21:30.346Z,32.80
2018-05-08T10:23:58.359Z,33.20
2018-05-08T10:26:28.254Z,32.70
2018-05-08T10:28:56.266Z,33.50
2018-05-08T10:31:24.286Z,32.10
2018-05-08T10:33:55.906Z,31.50
2018-05-08T10:36:26.703Z,33.10
2018-05-08T10:38:54.698Z,33.10
2018-05-08T10:41:24.473Z,31.60
2018-05-08T10:43:52.490Z,31.50
2018-05-08T10:46:21.263Z,30.90
2018-05-08T10:49:04.918Z,31.90
2018-05-08T10:51:32.918Z,32.00
2018-05-08T10:54:01.828Z,32.70
2018-05-08T10:56:32.865Z,32.40
2018-05-08T10:59:04.507Z,32.00
2018-05-08T11:01:34.484Z,32.60
2018-05-08T11:04:03.414Z,32.90
2018-05-08T11:06:31.414Z,32.00
2018-05-08T11:09:10.094Z,32.50
2018-05-08T11:11:38.086Z,32.70
2018-05-08T11:14:06.102Z,31.80
2018-05-08T11:16:34.894Z,30.40
2018-05-08T11:19:28.262Z,31.00
2018-05-08T11:22:17.825Z,30.90
2018-05-08T11:24:46.634Z,29.60
2018-05-08T11:27:22.814Z,29.50
2018-05-08T11:30:00.581Z,30.00
2018-05-08T11:32:30.549Z,31.10
2018-05-08T11:34:58.561Z,31.40
2018-05-08T11:37:26.566Z,29.50
2018-05-08T11:39:56.258Z,30.70
2018-05-08T11:42:31.926Z,30.80
2018-05-08T11:45:09.658Z,31.00
2018-05-08T11:47:38.617Z,32.40
2018-05-08T11:50:06.671Z,31.80
2018-05-08T11:52:39.385Z,32.50
2018-05-08T11:55:19.804Z,31.00
2018-05-08T11:57:47.822Z,29.80
2018-05-08T12:00:18.934Z,29.30
2018-05-08T12:02:46.970Z,28.80
2018-05-08T12:05:15.733Z,29.90
2018-05-08T12:07:48.082Z,31.30
2018-05-08T12:10:16.094Z,31.10
2018-05-08T12:12:44.461Z,31.10
2018-05-08T12:15:18.315Z,29.90
2018-05-08T12:17:51.274Z,29.90
2018-05-08T12:20:20.222Z,30.50
2018-05-08T12:22:50.214Z,31.30
2018-05-08T12:25:18.266Z,29.20
2018-05-08T12:27:48.234Z,29.30
2018-05-08T12:30:18.226Z,28.80
2018-05-08T12:32:52.930Z,28.30
2018-05-08T12:35:28.882Z,26.90
2018-05-08T12:37:56.906Z,27.50
2018-05-08T12:40:25.894Z,28.40
2018-05-08T12:43:10.681Z,27.90
2018-05-08T12:45:40.450Z,27.70
2018-05-08T12:48:08.470Z,27.70
2018-05-08T12:50:37.405Z,28.00
2018-05-08T12:53:10.111Z,26.80
2018-05-08T12:55:38.997Z,27.10
2018-05-08T12:58:07.005Z,27.50
2018-05-08T13:00:35.002Z,28.00
2018-05-08T13:03:03.927Z,27.60
2018-05-08T13:05:33.609Z,26.80
2018-05-08T13:08:07.221Z,26.80
2018-05-08T13:10:35.221Z,27.30
2018-05-08T13:13:06.001Z,28.40
2018-05-08T13:15:34.016Z,28.40
2018-05-08T13:18:04.718Z,27.60
2018-05-08T13:20:34.737Z,27.60
2018-05-08T13:23:03.729Z,26.70
2018-05-08T13:25:31.725Z,26.40
2018-05-08T13:28:06.991Z,27.10
2018-05-08T13:30:39.013Z,27.10
2018-05-08T13:33:09.014Z,27.90
2018-05-08T13:35:37.914Z,27.40
2018-05-08T13:38:05.933Z,26.80
2018-05-08T13:40:39.730Z,27.00
2018-05-08T13:43:07.721Z,27.30
2018-05-08T13:45:37.706Z,27.30
2018-05-08T13:48:05.728Z,28.50
2018-05-08T13:50:33.726Z,27.80
2018-05-08T13:53:02.625Z,27.40
2018-05-08T13:55:31.621Z,25.30
2018-05-08T13:58:00.401Z,25.30
2018-05-08T14:00:33.417Z,25.70
2018-05-08T14:03:02.341Z,27.00
2018-05-08T14:05:35.801Z,27.80
2018-05-08T14:08:10.219Z,27.00
2018-05-08T14:10:38.249Z,26.00
2018-05-08T14:13:06.483Z,25.40
2018-05-08T14:15:34.259Z,24.80
2018-05-08T14:18:03.289Z,26.60
2018-05-08T14:20:32.277Z,28.80
2018-05-08T14:23:02.261Z,29.20
2018-05-08T14:25:35.795Z,27.50
2018-05-08T14:28:03.797Z,26.90
2018-05-08T14:30:34.569Z,27.90
2018-05-08T14:33:03.577Z,27.80
2018-05-08T14:35:31.569Z,27.70
2018-05-08T14:38:02.252Z,29.20
2018-05-08T14:40:31.245Z,29.20
2018-05-08T14:42:59.248Z,29.30
2018-05-08T14:45:33.111Z,30.70
2018-05-08T14:48:06.801Z,31.00
2018-05-08T14:50:39.776Z,29.20
2018-05-08T14:53:07.781Z,27.70
2018-05-08T14:55:35.777Z,28.20
2018-05-08T14:58:06.933Z,27.30
2018-05-08T15:00:39.866Z,28.50
2018-05-08T15:03:07.870Z,28.50
2018-05-08T15:05:35.879Z,30.00
2018-05-08T15:10:33.709Z,27.20
2018-05-08T15:13:01.707Z,27.70
2018-05-08T15:15:33.329Z,29.10
2018-05-08T15:18:01.328Z,29.40
2018-05-08T15:20:32.745Z,30.30
2018-05-08T15:23:02.745Z,30.70
2018-05-08T15:25:30.752Z,29.80
2018-05-08T15:28:17.847Z,27.50
2018-05-08T15:30:45.844Z,27.70
2018-05-08T15:33:17.572Z,27.50
2018-05-08T15:35:46.556Z,28.50
2018-05-08T15:38:21.760Z,29.40
2018-05-08T15:40:50.644Z,29.80
2018-05-08T15:43:18.665Z,28.50
2018-05-08T15:45:48.576Z,28.10
2018-05-08T15:48:22.953Z,28.20
2018-05-08T15:50:54.980Z,28.60
2018-05-08T15:53:22.984Z,28.00
2018-05-08T15:55:51.904Z,29.50
2018-05-08T15:58:32.979Z,29.50
2018-05-08T16:01:00.983Z,29.40
2018-05-08T16:03:28.976Z,28.90
2018-05-08T16:06:03.544Z,29.20
2018-05-08T16:08:32.436Z,29.20
2018-05-08T16:11:00.424Z,29.30
2018-05-08T16:13:29.408Z,29.30
2018-05-08T16:16:10.420Z,31.40
2018-05-08T16:18:39.209Z,31.90
2018-05-08T16:21:14.365Z,31.80
2018-05-08T16:23:42.377Z,31.70
2018-05-08T16:26:16.752Z,31.40
2018-05-08T16:28:47.940Z,30.70
2018-05-08T16:31:16.836Z,30.20
2018-05-08T16:33:44.888Z,30.30
2018-05-08T16:36:12.907Z,30.60
2018-05-08T16:38:41.843Z,30.00
2018-05-08T16:41:11.794Z,31.20
2018-05-08T16:43:43.116Z,31.00
2018-05-08T16:46:11.116Z,30.50
2018-05-08T16:48:41.100Z,30.60
2018-05-08T16:51:10.108Z,31.80
2018-05-08T16:53:38.117Z,31.60
2018-05-08T16:56:07.864Z,34.40
2018-05-08T16:58:40.487Z,33.50
2018-05-08T17:01:09.440Z,33.50
2018-05-08T17:03:38.448Z,32.80
2018-05-08T17:06:07.416Z,32.40
2018-05-08T17:08:46.341Z,33.20
2018-05-08T17:11:20.128Z,33.30
2018-05-08T17:13:58.773Z,34.40
2018-05-08T17:16:38.005Z,34.80
2018-05-08T17:19:06.133Z,35.20
2018-05-08T17:21:44.780Z,35.20
2018-05-08T17:24:13.796Z,35.20
2018-05-08T17:26:41.793Z,35.80
2018-05-08T17:29:11.792Z,36.00
2018-05-08T17:31:40.776Z,35.90
2018-05-08T17:34:12.445Z,35.60
2018-05-08T17:36:41.428Z,35.90
2018-05-08T17:39:11.324Z,36.10
2018-05-08T17:41:44.180Z,36.00
2018-05-08T17:44:12.344Z,36.30
2018-05-08T17:46:40.993Z,36.50
2018-05-08T17:49:09.008Z,36.60
2018-05-08T17:51:37.012Z,37.10
2018-05-08T17:54:15.008Z,36.90
2018-05-08T17:56:43.032Z,37.40
2018-05-08T17:59:15.225Z,38.30
2018-05-08T18:04:48.364Z,38.80
2018-05-08T18:07:37.475Z,39.30
2018-05-08T18:10:13.086Z,40.10
2018-05-08T18:12:53.757Z,40.10
2018-05-08T18:15:42.764Z,40.60
2018-05-08T18:21:11.116Z,41.60
2018-05-08T18:23:39.144Z,42.10
2018-05-08T18:26:10.328Z,42.30
2018-05-08T18:28:44.542Z,42.70
2018-05-08T18:31:17.676Z,43.00
2018-05-08T18:33:46.632Z,43.30
2018-05-08T18:36:18.996Z,43.70
2018-05-08T18:41:50.945Z,44.00
2018-05-08T18:44:38.547Z,44.40
2018-05-08T18:47:12.543Z,44.60
2018-05-08T18:49:47.996Z,44.80
2018-05-08T18:52:22.167Z,45.30
2018-05-08T18:54:53.947Z,45.20
2018-05-08T18:57:22.719Z,45.70
2018-05-08T18:59:51.695Z,45.70
2018-05-08T19:02:23.147Z,46.00
2018-05-08T19:04:51.153Z,46.10
2018-05-08T19:07:23.500Z,46.30
2018-05-08T19:10:10.687Z,46.30
2018-05-08T19:12:38.739Z,46.30
2018-05-08T19:15:19.251Z,46.30
2018-05-08T19:17:48.303Z,46.30
2018-05-08T19:20:18.247Z,46.30
2018-05-08T19:22:47.259Z,46.20
2018-05-08T19:25:16.263Z,46.20
2018-05-08T19:27:45.215Z,46.10
2018-05-08T19:30:24.479Z,46.20
2018-05-08T19:33:06.088Z,46.30
2018-05-08T19:35:43.971Z,46.70
2018-05-08T19:38:15.884Z,46.60
2018-05-08T19:40:47.875Z,46.90
2018-05-08T19:43:15.891Z,47.00
2018-05-08T19:45:44.656Z,47.30
2018-05-08T19:48:20.864Z,47.30
2018-05-08T19:50:50.806Z,47.50
2018-05-08T19:53:18.824Z,47.80
2018-05-08T19:55:47.603Z,48.20
2018-05-08T19:58:21.615Z,48.30
2018-05-08T20:00:49.703Z,48.30
2018-05-08T20:03:19.627Z,48.40
2018-05-08T20:05:47.623Z,48.70
2018-05-08T20:08:15.643Z,48.90
2018-05-08T20:10:43.675Z,49.10
2018-05-08T20:13:18.059Z,49.50
2018-05-08T20:15:46.135Z,49.70
2018-05-08T20:18:15.051Z,49.90
2018-05-08T20:20:45.039Z,50.40
2018-05-08T20:23:16.835Z,50.70
2018-05-08T20:25:46.799Z,51.00
2018-05-08T20:28:15.723Z,51.40
2018-05-08T20:30:44.705Z,51.80
2018-05-08T20:33:13.455Z,52.80
2018-05-08T20:35:44.723Z,52.70
2018-05-08T20:38:12.751Z,53.10
2018-05-08T20:40:49.883Z,54.40
2018-05-08T20:43:36.363Z,54.90
2018-05-08T20:46:07.554Z,55.00
2018-05-08T20:48:40.273Z,55.60
2018-05-08T20:51:13.979Z,56.80
2018-05-08T20:53:42.347Z,56.80
2018-05-08T20:56:13.031Z,58.40
2018-05-08T20:58:41.839Z,59.30
2018-05-08T21:01:13.166Z,59.30
2018-05-08T21:03:41.106Z,60.10
2018-05-08T21:06:12.419Z,60.80
2018-05-08T21:08:45.380Z,61.60
2018-05-08T21:11:14.311Z,62.40
2018-05-08T21:13:43.119Z,63.00
2018-05-08T21:16:13.035Z,63.00
2018-05-08T21:18:44.535Z,63.30
2018-05-08T21:21:14.483Z,63.90
2018-05-08T21:23:55.583Z,64.90
2018-05-08T21:26:26.839Z,65.60
2018-05-08T21:28:59.575Z,66.30
2018-05-08T21:31:32.287Z,68.20
2018-05-08T21:34:04.091Z,68.20
2018-05-08T21:36:34.091Z,69.20
2018-05-08T21:39:06.590Z,69.80
2018-05-08T21:41:39.467Z,70.50
2018-05-08T21:44:10.379Z,70.40
2018-05-08T21:46:43.711Z,70.70
2018-05-08T21:49:25.165Z,71.40
2018-05-08T21:52:05.976Z,71.50
2018-05-08T21:54:34.933Z,72.30
2018-05-08T21:57:05.009Z,72.80
2018-05-08T21:59:36.890Z,72.80
2018-05-08T22:02:11.226Z,72.80
2018-05-08T22:04:46.244Z,72.50
2018-05-08T22:07:16.185Z,72.30
2018-05-08T22:09:44.237Z,72.20
2018-05-08T22:12:19.214Z,72.50
2018-05-08T22:14:51.233Z,73.00
2018-05-08T22:17:20.170Z,73.00
2018-05-08T22:19:52.085Z,73.20
2018-05-08T22:22:30.382Z,73.20
2018-05-08T22:24:59.405Z,73.20
2018-05-08T22:27:27.545Z,73.60
2018-05-08T22:29:55.597Z,74.00
2018-05-08T22:32:25.562Z,74.20
2018-05-08T22:34:54.545Z,74.70
2018-05-08T22:37:22.575Z,75.30
2018-05-08T22:39:50.590Z,75.70
2018-05-08T22:42:29.015Z,76.60
2018-05-08T22:44:58.945Z,77.50
2018-05-08T22:47:30.717Z,79.30
2018-05-08T22:49:58.733Z,79.80
2018-05-08T22:52:43.789Z,80.10
2018-05-08T22:55:15.857Z,81.20
2018-05-08T22:57:44.969Z,82.80
2018-05-08T23:00:13.962Z,84.30
2018-05-08T23:02:46.369Z,85.30
2018-05-08T23:05:15.141Z,87.50
2018-05-08T23:07:44.929Z,88.20
2018-05-08T23:10:27.985Z,88.20
2018-05-08T23:13:11.221Z,89.80
2018-05-08T23:15:39.241Z,89.70
2018-05-08T23:18:07.287Z,90.40
2018-05-08T23:20:37.225Z,90.90
2018-05-08T23:23:06.245Z,91.10
2018-05-08T23:25:34.273Z,91.30
2018-05-08T23:28:05.454Z,91.50
2018-05-08T23:30:33.489Z,91.80
2018-05-08T23:33:05.777Z,92.10
2018-05-08T23:35:33.810Z,92.60
2018-05-08T23:38:02.733Z,92.80
2018-05-08T23:40:30.757Z,93.10
2018-05-08T23:42:59.525Z,93.70
2018-05-08T23:50:54.353Z,93.80
2018-05-08T23:53:22.353Z,93.80
2018-05-08T23:55:50.377Z,93.60
2018-05-08T23:58:19.357Z,93.70
